createdAt,value
2023-09-27T00:01:40.598Z,16.85
2023-09-27T00:04:08.481Z,16.98
2023-09-27T00:06:36.981Z,16.05
2023-09-27T00:09:05.656Z,16.38
2023-09-27T00:11:33.492Z,16.33
2023-09-27T00:14:01.262Z,16.40
2023-09-27T00:16:29.364Z,15.77
2023-09-27T00:18:59.217Z,16.67
2023-09-27T00:21:26.960Z,17.33
2023-09-27T00:23:55.081Z,16.52
2023-09-27T00:26:22.837Z,16.95
2023-09-27T00:28:50.643Z,15.63
2023-09-27T00:31:18.446Z,16.55
2023-09-27T00:33:46.184Z,14.80
2023-09-27T00:36:15.521Z,14.80
2023-09-27T00:38:43.208Z,15.43
2023-09-27T00:41:11.305Z,16.23
2023-09-27T00:43:39.121Z,15.80
2023-09-27T00:46:07.884Z,14.93
2023-09-27T00:48:38.829Z,15.63
2023-09-27T00:51:07.095Z,15.18
2023-09-27T00:53:36.478Z,16.80
2023-09-27T00:56:04.983Z,16.42
2023-09-27T00:58:35.664Z,15.77
2023-09-27T01:01:03.446Z,14.98
2023-09-27T01:03:31.482Z,15.52
2023-09-27T01:05:59.319Z,14.85
2023-09-27T01:08:27.090Z,16.23
2023-09-27T01:10:56.317Z,15.70
2023-09-27T01:13:24.124Z,17.25
2023-09-27T01:15:51.936Z,16.77
2023-09-27T01:18:19.678Z,15.20
2023-09-27T01:20:47.490Z,15.45
2023-09-27T01:23:16.813Z,14.55
2023-09-27T01:25:44.607Z,14.15
2023-09-27T01:28:13.296Z,14.13
2023-09-27T01:30:41.070Z,14.27
2023-09-27T01:33:10.017Z,14.00
2023-09-27T01:35:38.762Z,13.70
2023-09-27T01:38:07.532Z,13.73
2023-09-27T01:40:39.015Z,13.50
2023-09-27T01:43:06.983Z,15.20
2023-09-27T01:45:35.019Z,13.02
2023-09-27T01:48:03.729Z,12.82
2023-09-27T01:50:33.543Z,12.70
2023-09-27T01:53:01.466Z,14.25
2023-09-27T01:55:29.289Z,15.13
2023-09-27T01:57:58.797Z,14.25
2023-09-27T02:00:26.557Z,15.50
2023-09-27T02:02:57.869Z,15.02
2023-09-27T02:05:26.828Z,17.30
2023-09-27T02:07:54.743Z,16.30
2023-09-27T02:10:22.917Z,15.82
2023-09-27T02:12:50.901Z,14.60
2023-09-27T02:15:20.082Z,14.82
2023-09-27T02:17:47.858Z,14.75
2023-09-27T02:20:19.196Z,15.32
2023-09-27T02:22:47.856Z,13.48
2023-09-27T02:25:16.370Z,13.43
2023-09-27T02:27:44.264Z,15.02
2023-09-27T02:30:13.867Z,12.75
2023-09-27T02:32:43.951Z,12.77
2023-09-27T02:35:13.201Z,12.68
2023-09-27T02:37:42.159Z,13.02
2023-09-27T02:40:14.244Z,13.70
2023-09-27T02:42:43.173Z,14.82
2023-09-27T02:45:12.239Z,17.08
2023-09-27T02:47:41.413Z,15.55
2023-09-27T02:50:13.453Z,15.45
2023-09-27T02:52:41.355Z,16.60
2023-09-27T02:55:10.918Z,19.13
2023-09-27T02:57:38.915Z,16.25
2023-09-27T03:00:08.357Z,14.23
2023-09-27T03:02:36.623Z,13.18
2023-09-27T03:05:06.750Z,13.48
2023-09-27T03:07:36.163Z,12.10
2023-09-27T03:10:05.693Z,12.23
2023-09-27T03:12:33.676Z,11.70
2023-09-27T03:15:01.377Z,12.02
2023-09-27T03:17:29.284Z,12.57
2023-09-27T03:19:57.013Z,13.35
2023-09-27T03:22:24.744Z,12.93
2023-09-27T03:24:53.746Z,12.35
2023-09-27T03:27:21.443Z,12.93
2023-09-27T03:29:49.146Z,12.32
2023-09-27T03:32:16.867Z,12.60
2023-09-27T03:34:44.643Z,12.50
2023-09-27T03:37:12.354Z,12.73
2023-09-27T03:39:40.199Z,12.55
2023-09-27T03:42:09.281Z,12.73
2023-09-27T03:44:37.364Z,13.32
2023-09-27T03:47:05.236Z,12.32
2023-09-27T03:49:32.996Z,12.82
2023-09-27T03:52:00.707Z,12.45
2023-09-27T03:54:28.483Z,12.57
2023-09-27T03:56:56.505Z,13.70
2023-09-27T03:59:25.840Z,17.88
2023-09-27T04:01:53.867Z,15.55
2023-09-27T04:04:21.625Z,13.88
2023-09-27T04:06:50.385Z,12.88
2023-09-27T04:09:18.165Z,14.90
2023-09-27T04:11:45.871Z,13.57
2023-09-27T04:14:13.736Z,12.93
2023-09-27T04:16:43.243Z,12.65
2023-09-27T04:19:10.926Z,13.63
2023-09-27T04:21:38.758Z,13.43
2023-09-27T04:24:07.975Z,12.98
2023-09-27T04:26:35.929Z,13.65
2023-09-27T04:29:05.720Z,14.65
2023-09-27T04:31:35.844Z,13.60
2023-09-27T04:34:05.789Z,15.13
2023-09-27T04:36:33.650Z,14.02
2023-09-27T04:39:01.520Z,13.60
2023-09-27T04:41:29.273Z,14.68
2023-09-27T04:43:57.031Z,17.17
2023-09-27T04:46:24.845Z,13.60
2023-09-27T04:48:52.901Z,12.77
2023-09-27T04:51:22.079Z,12.80
2023-09-27T04:53:49.747Z,14.43
2023-09-27T04:56:17.705Z,13.23
2023-09-27T04:58:45.450Z,12.63
2023-09-27T05:01:13.151Z,14.80
2023-09-27T05:03:41.130Z,13.50
2023-09-27T05:06:09.036Z,13.88
2023-09-27T05:08:38.115Z,12.48
2023-09-27T05:11:05.845Z,13.05
2023-09-27T05:13:33.623Z,12.10
2023-09-27T05:16:01.509Z,12.25
2023-09-27T05:18:29.273Z,11.82
2023-09-27T05:20:57.647Z,12.32
2023-09-27T05:23:25.365Z,12.52
2023-09-27T05:25:54.477Z,11.98
2023-09-27T05:28:22.142Z,12.25
2023-09-27T05:30:49.853Z,12.38
2023-09-27T05:33:18.921Z,12.65
2023-09-27T05:35:50.138Z,12.63
2023-09-27T05:38:18.043Z,12.07
2023-09-27T05:40:46.192Z,13.32
2023-09-27T05:43:15.434Z,15.18
2023-09-27T05:45:43.128Z,12.45
2023-09-27T05:48:10.948Z,12.00
2023-09-27T05:50:39.050Z,13.85
2023-09-27T05:53:07.665Z,12.73
2023-09-27T05:55:35.849Z,11.55
2023-09-27T05:58:03.633Z,11.98
2023-09-27T06:00:39.317Z,11.10
2023-09-27T06:03:07.041Z,12.77
2023-09-27T06:05:34.846Z,14.65
2023-09-27T06:08:04.449Z,11.70
2023-09-27T06:10:32.328Z,11.85
2023-09-27T06:13:00.088Z,11.13
2023-09-27T06:15:27.767Z,11.77
2023-09-27T06:17:56.851Z,11.00
2023-09-27T06:20:25.570Z,10.70
2023-09-27T06:22:54.640Z,10.88
2023-09-27T06:25:24.816Z,11.32
2023-09-27T06:27:53.181Z,12.07
2023-09-27T06:30:21.695Z,12.63
2023-09-27T06:32:49.923Z,10.57
2023-09-27T06:35:19.279Z,11.75
2023-09-27T06:37:50.390Z,12.65
2023-09-27T06:40:19.015Z,12.57
2023-09-27T06:42:47.184Z,12.02
2023-09-27T06:45:16.502Z,11.20
2023-09-27T06:47:46.793Z,10.98
2023-09-27T06:50:15.243Z,11.40
2023-09-27T06:52:46.451Z,11.73
2023-09-27T06:55:17.388Z,11.13
2023-09-27T06:57:47.600Z,11.68
2023-09-27T07:00:19.697Z,12.45
2023-09-27T07:05:17.080Z,13.82
2023-09-27T07:07:48.065Z,13.25
2023-09-27T07:10:16.158Z,11.35
2023-09-27T07:12:43.960Z,11.77
2023-09-27T07:15:14.074Z,12.02
2023-09-27T07:17:42.170Z,13.25
2023-09-27T07:20:18.851Z,12.00
2023-09-27T07:22:48.101Z,12.25
2023-09-27T07:25:18.512Z,12.48
2023-09-27T07:27:47.418Z,15.23
2023-09-27T07:30:19.171Z,13.20
2023-09-27T07:32:47.517Z,12.45
2023-09-27T07:35:15.581Z,12.43
2023-09-27T07:37:43.365Z,15.32
2023-09-27T07:40:13.808Z,14.00
2023-09-27T07:42:42.958Z,13.60
2023-09-27T07:45:22.229Z,12.93
2023-09-27T07:47:51.919Z,12.85
2023-09-27T07:50:20.778Z,13.30
2023-09-27T07:52:48.871Z,13.40
2023-09-27T07:55:18.924Z,13.68
2023-09-27T07:57:46.957Z,13.77
2023-09-27T08:00:17.179Z,13.70
2023-09-27T08:02:46.507Z,13.52
2023-09-27T08:05:18.065Z,13.15
2023-09-27T08:07:46.519Z,14.43
2023-09-27T08:12:46.842Z,14.10
2023-09-27T08:15:14.754Z,14.05
2023-09-27T08:17:43.475Z,13.77
2023-09-27T08:20:13.557Z,12.75
2023-09-27T08:22:41.589Z,12.70
2023-09-27T08:25:15.679Z,12.98
2023-09-27T08:27:43.973Z,12.63
2023-09-27T08:30:14.069Z,12.63
2023-09-27T08:32:42.983Z,12.68
2023-09-27T08:35:12.362Z,12.95
2023-09-27T08:37:40.157Z,13.82
2023-09-27T08:40:14.070Z,13.30
2023-09-27T08:42:42.662Z,13.73
2023-09-27T08:45:15.757Z,13.70
2023-09-27T08:47:47.048Z,13.27
2023-09-27T08:50:15.845Z,13.23
2023-09-27T08:52:47.703Z,13.05
2023-09-27T08:55:15.727Z,13.43
2023-09-27T08:57:47.909Z,14.90
2023-09-27T09:02:53.524Z,15.48
2023-09-27T09:07:49.055Z,14.85
2023-09-27T09:10:17.742Z,14.30
2023-09-27T09:12:48.329Z,15.00
2023-09-27T09:15:31.399Z,15.82
2023-09-27T09:18:00.199Z,16.15
2023-09-27T09:20:33.764Z,16.13
2023-09-27T09:23:05.511Z,14.88
2023-09-27T09:25:36.183Z,14.98
2023-09-27T09:28:05.777Z,16.20
2023-09-27T09:30:38.748Z,15.63
2023-09-27T09:33:11.017Z,16.08
2023-09-27T09:35:39.289Z,15.80
2023-09-27T09:38:07.006Z,15.38
2023-09-27T09:40:35.401Z,14.80
2023-09-27T09:43:04.012Z,14.68
2023-09-27T09:45:31.885Z,15.18
2023-09-27T09:48:00.990Z,16.63
2023-09-27T09:50:30.665Z,15.55
2023-09-27T09:52:59.806Z,15.77
2023-09-27T09:55:45.666Z,17.08
2023-09-27T09:58:27.175Z,17.20
2023-09-27T10:00:56.110Z,16.05
2023-09-27T10:03:28.468Z,15.30
2023-09-27T10:05:57.603Z,16.65
2023-09-27T10:08:26.294Z,16.20
2023-09-27T10:10:54.010Z,16.05
2023-09-27T10:13:21.808Z,15.95
2023-09-27T10:15:50.241Z,15.90
2023-09-27T10:18:34.694Z,14.82
2023-09-27T10:21:10.276Z,14.55
2023-09-27T10:23:59.216Z,15.13
2023-09-27T10:26:39.404Z,15.50
2023-09-27T10:29:13.746Z,15.77
2023-09-27T10:32:21.570Z,14.95
2023-09-27T10:34:52.785Z,15.55
2023-09-27T10:37:53.297Z,16.33
2023-09-27T10:40:22.216Z,15.80
2023-09-27T10:42:50.493Z,16.55
2023-09-27T10:45:18.877Z,15.18
2023-09-27T10:47:47.836Z,16.20
2023-09-27T10:50:18.660Z,15.07
2023-09-27T10:52:46.344Z,15.25
2023-09-27T10:55:15.366Z,15.15
2023-09-27T10:57:43.436Z,14.73
2023-09-27T11:00:14.102Z,14.75
2023-09-27T11:02:43.184Z,15.90
2023-09-27T11:05:11.330Z,15.40
2023-09-27T11:07:48.160Z,14.77
2023-09-27T11:10:20.903Z,14.55
2023-09-27T11:12:48.682Z,15.32
2023-09-27T11:15:24.059Z,15.05
2023-09-27T11:17:56.777Z,13.90
2023-09-27T11:20:25.893Z,13.95
2023-09-27T11:22:59.896Z,14.35
2023-09-27T11:25:28.734Z,14.20
2023-09-27T11:27:56.900Z,13.60
2023-09-27T11:30:29.320Z,13.52
2023-09-27T11:32:57.668Z,14.27
2023-09-27T11:35:26.411Z,14.05
2023-09-27T11:38:10.451Z,14.10
2023-09-27T11:40:39.286Z,13.57
2023-09-27T11:43:07.207Z,13.55
2023-09-27T11:45:45.323Z,13.75
2023-09-27T11:48:13.297Z,13.82
2023-09-27T11:50:41.140Z,14.95
2023-09-27T11:53:10.516Z,13.35
2023-09-27T11:55:38.366Z,13.98
2023-09-27T11:58:06.065Z,14.95
2023-09-27T12:00:34.006Z,13.75
2023-09-27T12:03:01.820Z,13.07
2023-09-27T12:05:30.012Z,13.23
2023-09-27T12:07:58.042Z,13.73
2023-09-27T12:10:27.273Z,14.93
2023-09-27T12:12:56.047Z,14.93
2023-09-27T12:15:23.759Z,13.77
2023-09-27T12:17:51.562Z,13.35
2023-09-27T12:20:35.994Z,14.98
2023-09-27T12:23:07.234Z,14.05
2023-09-27T12:25:36.641Z,13.88
2023-09-27T12:28:05.979Z,14.05
2023-09-27T12:30:33.711Z,13.50
2023-09-27T12:33:01.958Z,15.27
2023-09-27T12:35:29.796Z,16.73
2023-09-27T12:37:57.561Z,18.52
2023-09-27T12:40:25.595Z,13.57
2023-09-27T12:42:55.133Z,13.85
2023-09-27T12:45:22.799Z,14.15
2023-09-27T12:47:50.648Z,14.32
2023-09-27T12:50:21.886Z,14.25
2023-09-27T12:52:49.696Z,13.27
2023-09-27T12:55:17.546Z,13.40
2023-09-27T12:57:45.233Z,13.73
2023-09-27T13:00:15.568Z,13.75
2023-09-27T13:02:43.379Z,13.07
2023-09-27T13:05:11.350Z,14.07
2023-09-27T13:07:39.381Z,14.23
2023-09-27T13:10:08.081Z,13.50
2023-09-27T13:12:35.935Z,14.43
2023-09-27T13:15:03.739Z,13.70
2023-09-27T13:17:32.900Z,14.68
2023-09-27T13:20:00.690Z,14.30
2023-09-27T13:22:28.383Z,13.98
2023-09-27T13:24:56.032Z,13.82
2023-09-27T13:27:23.735Z,14.60
2023-09-27T13:29:51.468Z,14.15
2023-09-27T13:32:20.010Z,14.27
2023-09-27T13:34:49.837Z,13.98
2023-09-27T13:37:20.709Z,13.65
2023-09-27T13:39:48.401Z,14.20
2023-09-27T13:42:16.103Z,14.02
2023-09-27T13:44:43.837Z,14.32
2023-09-27T13:47:11.795Z,14.63
2023-09-27T13:49:39.463Z,14.93
2023-09-27T13:52:08.494Z,13.85
2023-09-27T13:54:36.215Z,14.95
2023-09-27T13:57:03.917Z,14.40
2023-09-27T13:59:31.608Z,14.80
2023-09-27T14:01:59.362Z,14.05
2023-09-27T14:04:28.247Z,14.25
2023-09-27T14:06:56.056Z,14.50
2023-09-27T14:09:25.227Z,14.05
2023-09-27T14:11:52.981Z,14.65
2023-09-27T14:14:20.753Z,13.55
2023-09-27T14:16:48.558Z,14.15
2023-09-27T14:19:17.282Z,13.25
2023-09-27T14:21:45.847Z,14.00
2023-09-27T14:24:13.571Z,14.32
2023-09-27T14:26:44.335Z,14.30
2023-09-27T14:29:18.780Z,14.80
2023-09-27T14:31:50.277Z,13.70
2023-09-27T14:34:17.966Z,13.65
2023-09-27T14:36:45.697Z,14.60
2023-09-27T14:39:14.352Z,13.77
2023-09-27T14:41:45.546Z,13.48
2023-09-27T14:44:13.362Z,13.52
2023-09-27T14:46:41.180Z,13.82
2023-09-27T14:49:09.005Z,14.35
2023-09-27T14:51:36.817Z,14.02
2023-09-27T14:54:04.674Z,14.40
2023-09-27T14:56:32.392Z,14.65
2023-09-27T14:59:02.400Z,15.00
2023-09-27T15:01:30.472Z,13.98
2023-09-27T15:03:58.308Z,14.02
2023-09-27T15:06:26.250Z,14.23
2023-09-27T15:08:54.549Z,14.40
2023-09-27T15:11:23.954Z,14.25
2023-09-27T15:13:52.142Z,14.48
2023-09-27T15:16:21.576Z,14.77
2023-09-27T15:18:50.785Z,14.77
2023-09-27T15:21:18.764Z,14.13
2023-09-27T15:23:47.570Z,13.50
2023-09-27T15:26:15.463Z,14.07
2023-09-27T15:28:43.336Z,13.93
2023-09-27T15:31:11.405Z,13.95
2023-09-27T15:33:40.941Z,14.38
2023-09-27T15:36:09.182Z,14.63
2023-09-27T15:38:36.871Z,13.40
2023-09-27T15:41:05.444Z,14.65
2023-09-27T15:43:33.620Z,13.57
2023-09-27T15:46:04.224Z,13.30
2023-09-27T15:48:36.033Z,14.75
2023-09-27T15:51:07.689Z,14.15
2023-09-27T15:53:36.114Z,14.48
2023-09-27T15:56:05.782Z,14.25
2023-09-27T15:58:34.022Z,13.85
2023-09-27T16:01:01.893Z,14.27
2023-09-27T16:03:30.526Z,13.70
2023-09-27T16:05:59.286Z,14.38
2023-09-27T16:08:29.054Z,14.05
2023-09-27T16:10:58.089Z,14.55
2023-09-27T16:13:26.326Z,14.32
2023-09-27T16:15:54.539Z,14.48
2023-09-27T16:18:23.337Z,14.50
2023-09-27T16:20:51.057Z,13.90
2023-09-27T16:23:19.013Z,14.15
2023-09-27T16:25:49.592Z,14.30
2023-09-27T16:28:17.666Z,17.20
2023-09-27T16:30:45.831Z,14.25
2023-09-27T16:33:13.695Z,14.85
2023-09-27T16:35:41.718Z,14.10
2023-09-27T16:38:10.736Z,14.13
2023-09-27T16:40:38.780Z,13.82
2023-09-27T16:43:08.746Z,13.82
2023-09-27T16:45:38.562Z,15.55
2023-09-27T16:48:06.607Z,13.80
2023-09-27T16:50:34.349Z,14.48
2023-09-27T16:53:02.553Z,14.45
2023-09-27T16:55:30.344Z,15.40
2023-09-27T16:57:58.117Z,16.65
2023-09-27T17:00:27.494Z,16.40
2023-09-27T17:02:55.287Z,17.90
2023-09-27T17:05:23.153Z,16.35
2023-09-27T17:07:50.861Z,14.63
2023-09-27T17:10:18.623Z,14.95
2023-09-27T17:12:46.341Z,14.45
2023-09-27T17:15:14.047Z,13.55
2023-09-27T17:17:43.144Z,16.45
2023-09-27T17:20:11.613Z,17.98
2023-09-27T17:22:39.405Z,15.40
2023-09-27T17:25:09.884Z,14.65
2023-09-27T17:27:38.304Z,15.15
2023-09-27T17:30:07.523Z,15.30
2023-09-27T17:32:35.436Z,14.32
2023-09-27T17:37:33.846Z,14.65
2023-09-27T17:40:04.835Z,15.13
2023-09-27T17:42:32.546Z,14.20
2023-09-27T17:45:00.259Z,14.45
2023-09-27T17:47:27.997Z,14.10
2023-09-27T17:49:55.828Z,14.73
2023-09-27T17:52:24.860Z,14.40
2023-09-27T17:54:53.095Z,14.48
2023-09-27T17:57:20.850Z,14.32
2023-09-27T17:59:48.554Z,14.68
2023-09-27T18:02:16.437Z,16.60
2023-09-27T18:04:44.218Z,15.00
2023-09-27T18:07:11.965Z,14.68
2023-09-27T18:09:41.039Z,14.50
2023-09-27T18:12:08.749Z,13.93
2023-09-27T18:14:36.424Z,13.98
2023-09-27T18:17:04.105Z,14.50
2023-09-27T18:19:31.827Z,14.63
2023-09-27T18:21:59.809Z,14.23
2023-09-27T18:24:28.443Z,14.38
2023-09-27T18:26:57.560Z,13.90
2023-09-27T18:29:25.271Z,14.35
2023-09-27T18:31:53.219Z,14.80
2023-09-27T18:34:20.993Z,14.55
2023-09-27T18:36:49.426Z,15.15
2023-09-27T18:39:17.132Z,15.20
2023-09-27T18:41:44.922Z,16.67
2023-09-27T18:44:14.880Z,15.32
2023-09-27T18:46:42.926Z,15.35
2023-09-27T18:49:10.965Z,16.08
2023-09-27T18:51:38.702Z,15.10
2023-09-27T18:54:08.117Z,15.35
2023-09-27T18:56:36.622Z,17.50
2023-09-27T18:59:05.190Z,17.15
2023-09-27T19:01:34.753Z,25.17
2023-09-27T19:04:03.330Z,104.78
2023-09-27T19:06:32.386Z,89.78
2023-09-27T19:09:00.104Z,52.20
2023-09-27T19:11:30.896Z,57.53
2023-09-27T19:13:58.716Z,24.05
2023-09-27T19:16:30.401Z,18.80
2023-09-27T19:18:59.657Z,24.92
2023-09-27T19:21:27.894Z,22.05
2023-09-27T19:23:55.611Z,17.45
2023-09-27T19:26:23.967Z,17.60
2023-09-27T19:28:52.434Z,16.25
2023-09-27T19:31:20.279Z,17.10
2023-09-27T19:33:48.576Z,20.88
2023-09-27T19:36:21.231Z,17.25
2023-09-27T19:38:49.237Z,17.77
2023-09-27T19:41:17.188Z,19.02
2023-09-27T19:43:45.235Z,18.40
2023-09-27T19:46:13.316Z,18.02
2023-09-27T19:48:42.361Z,17.80
2023-09-27T19:51:11.774Z,16.73
2023-09-27T19:53:41.146Z,16.05
2023-09-27T19:56:08.860Z,16.75
2023-09-27T19:58:36.552Z,17.17
2023-09-27T20:01:05.067Z,15.95
2023-09-27T20:03:33.064Z,15.48
2023-09-27T20:06:00.809Z,16.85
2023-09-27T20:08:28.879Z,16.63
2023-09-27T20:10:58.526Z,16.88
2023-09-27T20:13:26.284Z,16.90
2023-09-27T20:15:54.033Z,17.05
2023-09-27T20:18:23.360Z,16.33
2023-09-27T20:20:51.054Z,15.60
2023-09-27T20:23:18.868Z,16.88
2023-09-27T20:25:48.159Z,16.38
2023-09-27T20:28:17.239Z,17.40
2023-09-27T20:30:45.061Z,17.85
2023-09-27T20:33:13.049Z,16.65
2023-09-27T20:35:40.785Z,17.58
2023-09-27T20:38:09.379Z,17.27
2023-09-27T20:40:37.616Z,18.65
2023-09-27T20:43:05.702Z,20.50
2023-09-27T20:45:34.838Z,22.27
2023-09-27T20:48:02.638Z,20.63
2023-09-27T20:50:30.461Z,23.60
2023-09-27T20:52:58.424Z,24.50
2023-09-27T20:55:26.145Z,20.60
2023-09-27T20:57:54.170Z,19.50
2023-09-27T21:00:23.625Z,18.40
2023-09-27T21:02:52.854Z,17.73
2023-09-27T21:05:20.608Z,17.95
2023-09-27T21:07:50.381Z,18.27
2023-09-27T21:10:18.105Z,17.40
2023-09-27T21:12:45.829Z,16.45
2023-09-27T21:15:13.556Z,16.02
2023-09-27T21:17:41.271Z,17.00
2023-09-27T21:20:12.002Z,16.40
2023-09-27T21:22:39.788Z,17.92
2023-09-27T21:25:08.214Z,17.15
2023-09-27T21:27:36.090Z,17.05
2023-09-27T21:30:04.886Z,16.20
2023-09-27T21:32:32.761Z,16.80
2023-09-27T21:35:00.594Z,17.60
2023-09-27T21:37:29.725Z,16.27
2023-09-27T21:39:57.390Z,15.73
2023-09-27T21:42:25.493Z,16.08
2023-09-27T21:44:53.653Z,15.70
2023-09-27T21:47:21.344Z,15.57
2023-09-27T21:49:49.045Z,15.88
2023-09-27T21:52:16.806Z,15.13
2023-09-27T21:54:45.908Z,15.75
2023-09-27T21:57:15.972Z,13.90
2023-09-27T21:59:43.701Z,15.43
2023-09-27T22:02:12.681Z,14.65
2023-09-27T22:04:40.549Z,14.90
2023-09-27T22:07:08.320Z,14.90
2023-09-27T22:09:36.442Z,14.63
2023-09-27T22:12:05.839Z,15.82
2023-09-27T22:14:36.272Z,14.18
2023-09-27T22:17:09.378Z,15.30
2023-09-27T22:19:37.282Z,14.65
2023-09-27T22:22:05.729Z,14.40
2023-09-27T22:24:33.440Z,14.38
2023-09-27T22:27:02.144Z,15.32
2023-09-27T22:29:32.775Z,16.45
2023-09-27T22:32:01.384Z,14.52
2023-09-27T22:34:38.250Z,14.82
2023-09-27T22:37:09.026Z,15.35
2023-09-27T22:39:41.110Z,15.23
2023-09-27T22:44:44.496Z,15.68
2023-09-27T22:47:13.523Z,16.15
2023-09-27T22:49:41.569Z,16.42
2023-09-27T22:52:10.349Z,14.80
2023-09-27T22:54:39.547Z,16.17
2023-09-27T22:57:07.468Z,15.93
2023-09-27T22:59:39.194Z,15.98
2023-09-27T23:02:11.331Z,15.18
2023-09-27T23:04:39.377Z,15.00
2023-09-27T23:07:17.657Z,16.13
2023-09-27T23:09:48.216Z,15.25
2023-09-27T23:12:19.898Z,14.85
2023-09-27T23:17:54.398Z,14.85
2023-09-27T23:20:28.617Z,15.07
2023-09-27T23:22:57.939Z,14.70
2023-09-27T23:25:52.836Z,15.35
2023-09-27T23:28:28.400Z,15.40
2023-09-27T23:30:56.540Z,15.57
2023-09-27T23:33:25.752Z,15.23
2023-09-27T23:35:52.504Z,15.50
2023-09-27T23:38:37.668Z,15.10
2023-09-27T23:41:05.448Z,15.90
2023-09-27T23:43:41.491Z,14.93
2023-09-27T23:46:22.305Z,15.07
2023-09-27T23:48:53.673Z,15.85
2023-09-27T23:51:21.566Z,16.40
2023-09-27T23:53:49.314Z,15.90
2023-09-27T23:56:17.586Z,15.98
2023-09-27T23:58:45.658Z,15.43
